createdAt,value
2017-11-19T00:01:10.860Z,94.50
2017-11-19T00:03:38.362Z,94.50
2017-11-19T00:06:06.683Z,94.70
2017-11-19T00:08:34.185Z,94.60
2017-11-19T00:11:01.718Z,94.80
2017-11-19T00:13:29.237Z,94.80
2017-11-19T00:15:56.792Z,94.80
2017-11-19T00:18:24.294Z,94.90
2017-11-19T00:20:52.566Z,94.70
2017-11-19T00:23:20.122Z,94.70
2017-11-19T00:25:47.614Z,94.70
2017-11-19T00:28:15.152Z,94.50
2017-11-19T00:30:43.518Z,94.40
2017-11-19T00:33:11.067Z,94.10
2017-11-19T00:35:39.330Z,93.90
2017-11-19T00:38:06.835Z,93.90
2017-11-19T00:40:35.142Z,94.00
2017-11-19T00:43:02.650Z,94.00
2017-11-19T00:45:30.182Z,94.10
2017-11-19T00:47:57.689Z,94.10
2017-11-19T00:50:25.228Z,94.20
2017-11-19T00:52:52.727Z,94.40
2017-11-19T00:55:20.274Z,94.30
2017-11-19T00:57:47.767Z,94.40
2017-11-19T01:00:15.317Z,94.50
2017-11-19T01:02:42.801Z,92.80
2017-11-19T01:05:28.934Z,91.00
2017-11-19T01:07:56.454Z,91.10
2017-11-19T01:10:23.971Z,91.10
2017-11-19T01:12:51.519Z,91.00
2017-11-19T01:15:19.008Z,91.10
2017-11-19T01:17:46.542Z,91.10
2017-11-19T01:20:14.054Z,91.40
2017-11-19T01:22:41.595Z,92.10
2017-11-19T01:25:09.863Z,92.20
2017-11-19T01:27:38.184Z,92.00
2017-11-19T01:30:05.694Z,92.00
2017-11-19T01:32:33.230Z,92.30
2017-11-19T01:35:00.774Z,92.30
2017-11-19T01:37:29.093Z,92.50
2017-11-19T01:39:56.592Z,92.50
2017-11-19T01:42:24.133Z,92.50
2017-11-19T01:44:51.654Z,92.60
2017-11-19T01:47:19.150Z,92.60
2017-11-19T01:49:47.439Z,92.60
2017-11-19T01:52:15.693Z,92.50
2017-11-19T01:54:43.339Z,92.50
2017-11-19T01:57:10.858Z,92.50
2017-11-19T01:59:39.167Z,92.70
2017-11-19T02:02:07.433Z,92.50
2017-11-19T02:04:35.741Z,92.70
2017-11-19T02:07:04.031Z,92.80
2017-11-19T02:09:31.562Z,92.80
2017-11-19T02:11:59.077Z,93.10
2017-11-19T02:14:27.352Z,93.60
2017-11-19T02:16:54.921Z,93.60
2017-11-19T02:19:23.184Z,94.10
2017-11-19T02:21:50.721Z,93.80
2017-11-19T02:24:18.228Z,93.60
2017-11-19T02:26:45.746Z,93.50
2017-11-19T02:29:14.002Z,93.40
2017-11-19T02:31:41.530Z,93.40
2017-11-19T02:34:09.027Z,93.30
2017-11-19T02:36:36.577Z,93.20
2017-11-19T02:39:04.140Z,93.20
2017-11-19T02:41:31.659Z,93.10
2017-11-19T02:43:59.184Z,93.00
2017-11-19T02:46:26.697Z,93.00
2017-11-19T02:48:54.469Z,93.10
2017-11-19T02:51:22.105Z,93.00
2017-11-19T02:53:49.643Z,92.90
2017-11-19T02:56:17.143Z,93.00
2017-11-19T02:58:44.659Z,93.10
2017-11-19T03:01:12.142Z,93.10
2017-11-19T03:03:39.659Z,93.10
2017-11-19T03:06:07.495Z,93.20
2017-11-19T03:08:35.027Z,93.10
2017-11-19T03:11:02.517Z,93.10
2017-11-19T03:13:30.078Z,93.00
2017-11-19T03:15:57.576Z,93.10
2017-11-19T03:18:25.107Z,93.00
2017-11-19T03:20:52.636Z,92.90
2017-11-19T03:23:20.895Z,93.10
2017-11-19T03:25:48.439Z,93.10
2017-11-19T03:28:15.928Z,93.20
2017-11-19T03:30:43.468Z,93.40
2017-11-19T03:33:10.959Z,93.60
2017-11-19T03:35:38.526Z,93.70
2017-11-19T03:38:06.026Z,93.70
2017-11-19T03:40:33.573Z,93.80
2017-11-19T03:43:01.873Z,93.80
2017-11-19T03:45:29.375Z,93.80
2017-11-19T03:47:56.939Z,93.80
2017-11-19T03:50:24.430Z,93.80
2017-11-19T03:52:52.722Z,93.80
2017-11-19T03:55:20.222Z,93.80
2017-11-19T03:57:47.769Z,93.80
2017-11-19T04:00:16.030Z,94.10
2017-11-19T04:02:43.574Z,94.10
2017-11-19T04:05:11.074Z,94.20
2017-11-19T04:07:38.622Z,94.10
2017-11-19T04:10:06.137Z,94.30
2017-11-19T04:12:34.417Z,94.60
2017-11-19T04:15:01.966Z,94.60
2017-11-19T04:17:29.470Z,94.60
2017-11-19T04:19:56.991Z,94.70
2017-11-19T04:22:24.514Z,94.70
2017-11-19T04:24:52.050Z,95.10
2017-11-19T04:27:19.547Z,95.20
2017-11-19T04:29:47.090Z,95.30
2017-11-19T04:32:14.613Z,95.30
2017-11-19T04:34:42.927Z,95.60
2017-11-19T04:37:10.435Z,95.60
2017-11-19T04:39:37.978Z,95.50
2017-11-19T04:42:05.480Z,95.50
2017-11-19T04:44:33.165Z,95.80
2017-11-19T04:47:00.668Z,95.90
2017-11-19T04:49:28.934Z,96.10
2017-11-19T04:51:56.487Z,96.10
2017-11-19T04:54:24.314Z,96.10
2017-11-19T04:56:51.846Z,96.10
2017-11-19T04:59:19.347Z,96.20
2017-11-19T05:01:46.905Z,96.10
2017-11-19T05:04:14.407Z,96.40
2017-11-19T05:06:41.942Z,96.50
2017-11-19T05:09:09.445Z,96.50
2017-11-19T05:11:37.008Z,96.50
2017-11-19T05:14:05.270Z,96.30
2017-11-19T05:16:32.767Z,96.30
2017-11-19T05:19:01.067Z,96.10
2017-11-19T05:21:29.330Z,96.00
2017-11-19T05:23:56.941Z,96.00
2017-11-19T05:26:24.440Z,95.90
2017-11-19T05:28:51.974Z,95.70
2017-11-19T05:31:19.478Z,95.60
2017-11-19T05:33:47.011Z,95.50
2017-11-19T05:36:15.294Z,95.40
2017-11-19T05:38:42.827Z,95.40
2017-11-19T05:41:10.346Z,95.30
2017-11-19T05:43:37.842Z,95.30
2017-11-19T05:46:05.385Z,95.30
2017-11-19T05:48:33.659Z,95.10
2017-11-19T05:51:01.957Z,95.30
2017-11-19T05:53:30.223Z,95.00
2017-11-19T05:55:57.754Z,95.00
2017-11-19T05:58:25.252Z,95.20
2017-11-19T06:00:52.783Z,95.00
2017-11-19T06:03:20.274Z,95.30
2017-11-19T06:05:47.769Z,95.20
2017-11-19T06:08:15.306Z,95.20
2017-11-19T06:10:42.871Z,95.10
2017-11-19T06:13:10.390Z,95.00
2017-11-19T06:15:37.882Z,95.10
2017-11-19T06:18:05.607Z,95.20
2017-11-19T06:20:33.120Z,95.40
2017-11-19T06:23:00.675Z,95.50
2017-11-19T06:25:28.241Z,95.40
2017-11-19T06:27:55.786Z,95.30
2017-11-19T06:30:23.358Z,95.30
2017-11-19T06:32:50.859Z,95.20
2017-11-19T06:35:18.372Z,95.20
2017-11-19T06:37:46.663Z,95.10
2017-11-19T06:40:14.922Z,94.70
2017-11-19T06:42:42.467Z,94.70
2017-11-19T06:45:09.968Z,94.30
2017-11-19T06:47:37.516Z,94.40
2017-11-19T06:50:05.020Z,94.50
2017-11-19T06:52:32.587Z,94.10
2017-11-19T06:55:00.123Z,94.00
2017-11-19T06:57:27.735Z,93.50
2017-11-19T06:59:55.327Z,93.50
2017-11-19T07:02:22.830Z,93.80
2017-11-19T07:04:50.450Z,93.60
2017-11-19T07:07:18.012Z,93.10
2017-11-19T07:09:45.540Z,93.30
2017-11-19T07:12:13.167Z,92.90
2017-11-19T07:14:40.715Z,92.70
2017-11-19T07:17:08.232Z,92.30
2017-11-19T07:19:36.530Z,92.20
2017-11-19T07:22:04.796Z,92.20
2017-11-19T07:24:32.332Z,92.10
2017-11-19T07:26:59.830Z,92.10
2017-11-19T07:29:27.342Z,92.20
2017-11-19T07:31:55.751Z,91.20
2017-11-19T07:34:23.280Z,91.20
2017-11-19T07:36:50.811Z,91.20
2017-11-19T07:39:18.308Z,90.80
2017-11-19T07:41:45.835Z,90.90
2017-11-19T07:44:13.340Z,90.60
2017-11-19T07:46:40.868Z,90.50
2017-11-19T07:49:09.131Z,90.40
2017-11-19T07:51:36.675Z,90.40
2017-11-19T07:54:04.179Z,90.20
2017-11-19T07:56:31.693Z,89.60
2017-11-19T07:58:59.298Z,88.90
2017-11-19T08:01:26.796Z,87.50
2017-11-19T08:03:54.328Z,86.40
2017-11-19T08:06:21.822Z,86.00
2017-11-19T08:08:49.347Z,85.70
2017-11-19T08:11:17.611Z,85.10
2017-11-19T08:13:45.178Z,84.90
2017-11-19T08:16:12.675Z,86.00
2017-11-19T08:18:40.205Z,86.50
2017-11-19T08:21:07.690Z,87.50
2017-11-19T08:23:35.234Z,87.20
2017-11-19T08:26:02.757Z,87.50
2017-11-19T08:28:30.299Z,87.20
2017-11-19T08:30:57.800Z,87.20
2017-11-19T08:33:25.319Z,86.80
2017-11-19T08:35:52.896Z,87.00
2017-11-19T08:38:20.389Z,88.10
2017-11-19T08:40:47.978Z,87.60
2017-11-19T08:43:15.476Z,87.30
2017-11-19T08:45:43.789Z,86.60
2017-11-19T08:48:11.279Z,86.60
2017-11-19T08:50:38.817Z,80.40
2017-11-19T08:53:07.105Z,69.00
2017-11-19T08:55:36.451Z,68.20
2017-11-19T08:58:03.972Z,68.20
2017-11-19T09:00:31.589Z,71.70
2017-11-19T09:02:59.169Z,76.50
2017-11-19T09:05:26.770Z,80.50
2017-11-19T09:07:54.341Z,83.70
2017-11-19T09:10:21.830Z,86.00
2017-11-19T09:12:49.362Z,87.60
2017-11-19T09:15:17.241Z,88.60
2017-11-19T09:17:44.772Z,89.70
2017-11-19T09:20:12.304Z,85.30
2017-11-19T09:22:39.954Z,77.40
2017-11-19T09:25:07.457Z,75.10
2017-11-19T09:27:34.987Z,70.50
2017-11-19T09:30:02.525Z,67.30
2017-11-19T09:32:30.019Z,66.20
2017-11-19T09:34:57.575Z,63.30
2017-11-19T09:37:25.849Z,61.80
2017-11-19T09:39:53.374Z,61.70
2017-11-19T09:42:20.875Z,62.00
2017-11-19T09:44:48.411Z,61.30
2017-11-19T09:47:15.936Z,63.90
2017-11-19T09:49:44.262Z,62.90
2017-11-19T09:52:11.755Z,62.80
2017-11-19T09:54:39.317Z,62.10
2017-11-19T09:57:06.813Z,61.50
2017-11-19T09:59:34.351Z,60.40
2017-11-19T10:02:01.886Z,60.10
2017-11-19T10:04:29.511Z,60.20
2017-11-19T10:06:57.043Z,59.60
2017-11-19T10:09:25.385Z,59.50
2017-11-19T10:11:52.921Z,59.50
2017-11-19T10:14:20.430Z,59.70
2017-11-19T10:16:47.990Z,60.70
2017-11-19T10:19:15.508Z,59.20
2017-11-19T10:21:43.061Z,60.50
2017-11-19T10:24:10.566Z,60.90
2017-11-19T10:26:38.840Z,61.40
2017-11-19T10:29:06.430Z,61.40
2017-11-19T10:31:34.710Z,61.00
2017-11-19T10:34:02.249Z,61.00
2017-11-19T10:36:29.785Z,60.00
2017-11-19T10:38:57.391Z,61.10
2017-11-19T10:41:24.929Z,63.10
2017-11-19T10:43:52.479Z,63.00
2017-11-19T10:46:20.834Z,61.40
2017-11-19T10:48:48.435Z,61.40
2017-11-19T10:51:15.939Z,62.80
2017-11-19T10:53:43.450Z,63.00
2017-11-19T10:56:11.001Z,63.00
2017-11-19T10:58:38.510Z,62.00
2017-11-19T11:01:06.055Z,64.70
2017-11-19T11:03:33.570Z,66.60
2017-11-19T11:06:01.927Z,71.40
2017-11-19T11:08:29.639Z,71.40
2017-11-19T11:10:57.207Z,73.60
2017-11-19T11:13:24.799Z,75.30
2017-11-19T11:15:52.359Z,76.40
2017-11-19T11:18:19.887Z,77.00
2017-11-19T11:20:47.483Z,78.30
2017-11-19T11:23:15.803Z,79.80
2017-11-19T11:25:43.354Z,79.70
2017-11-19T11:28:10.911Z,79.80
2017-11-19T11:30:38.410Z,79.30
2017-11-19T11:33:06.726Z,77.90
2017-11-19T11:35:34.255Z,77.90
2017-11-19T11:38:01.797Z,78.00
2017-11-19T11:40:29.324Z,78.70
2017-11-19T11:42:57.702Z,78.50
2017-11-19T11:45:26.019Z,77.30
2017-11-19T11:47:53.521Z,77.30
2017-11-19T11:50:21.051Z,76.80
2017-11-19T11:52:49.520Z,75.50
2017-11-19T11:55:17.083Z,75.90
2017-11-19T11:57:44.587Z,75.60
2017-11-19T12:00:12.928Z,75.60
2017-11-19T12:02:40.458Z,75.60
2017-11-19T12:05:07.989Z,73.60
2017-11-19T12:07:35.558Z,74.10
2017-11-19T12:10:03.102Z,73.30
2017-11-19T12:12:30.630Z,72.30
2017-11-19T12:14:58.922Z,72.80
2017-11-19T12:17:27.224Z,72.80
2017-11-19T12:19:55.519Z,72.30
2017-11-19T12:22:23.179Z,72.30
2017-11-19T12:24:51.459Z,72.70
2017-11-19T12:27:18.972Z,72.70
2017-11-19T12:29:46.747Z,72.60
2017-11-19T12:32:14.254Z,71.20
2017-11-19T12:34:41.811Z,70.70
2017-11-19T12:37:09.322Z,68.50
2017-11-19T12:39:36.856Z,69.50
2017-11-19T12:42:04.371Z,70.60
2017-11-19T12:44:31.965Z,70.40
2017-11-19T12:46:59.488Z,70.20
2017-11-19T12:49:27.046Z,69.50
2017-11-19T12:51:54.740Z,69.90
2017-11-19T12:54:22.261Z,70.00
2017-11-19T12:56:49.818Z,69.70
2017-11-19T12:59:17.322Z,69.90
2017-11-19T13:01:44.951Z,70.90
2017-11-19T13:04:12.563Z,70.10
2017-11-19T13:06:40.101Z,70.70
2017-11-19T13:09:08.363Z,70.80
2017-11-19T13:11:35.897Z,70.70
2017-11-19T13:14:03.413Z,70.60
2017-11-19T13:16:31.052Z,70.80
2017-11-19T13:18:58.555Z,70.80
2017-11-19T13:21:26.072Z,71.40
2017-11-19T13:23:53.603Z,70.40
2017-11-19T13:26:21.107Z,70.40
2017-11-19T13:28:48.734Z,70.10
2017-11-19T13:31:16.330Z,70.70
2017-11-19T13:33:43.927Z,70.50
2017-11-19T13:36:11.500Z,70.30
2017-11-19T13:38:39.088Z,70.10
2017-11-19T13:41:07.417Z,69.90
2017-11-19T13:43:35.869Z,69.90
2017-11-19T13:46:03.417Z,69.80
2017-11-19T13:48:31.025Z,70.10
2017-11-19T13:50:58.758Z,69.60
2017-11-19T13:53:26.465Z,68.70
2017-11-19T13:55:54.869Z,69.20
2017-11-19T13:58:22.412Z,69.20
2017-11-19T14:00:49.955Z,69.40
2017-11-19T14:03:17.489Z,68.80
2017-11-19T14:05:45.123Z,68.60
2017-11-19T14:08:12.689Z,68.80
2017-11-19T14:10:41.099Z,70.20
2017-11-19T14:13:08.686Z,70.30
2017-11-19T14:15:36.203Z,71.20
2017-11-19T14:18:03.734Z,71.60
2017-11-19T14:20:31.240Z,72.60
2017-11-19T14:22:58.774Z,73.00
2017-11-19T14:25:26.287Z,73.70
2017-11-19T14:27:53.841Z,73.70
2017-11-19T14:30:21.339Z,74.30
2017-11-19T14:32:48.879Z,74.50
2017-11-19T14:35:16.385Z,75.00
2017-11-19T14:37:43.874Z,75.50
2017-11-19T14:40:11.400Z,74.50
2017-11-19T14:42:38.921Z,74.20
2017-11-19T14:45:06.455Z,73.70
2017-11-19T14:47:33.977Z,74.70
2017-11-19T14:50:02.618Z,76.30
2017-11-19T14:52:30.145Z,78.20
2017-11-19T14:57:32.391Z,80.10
2017-11-19T14:59:59.971Z,80.00
2017-11-19T15:02:27.502Z,79.50
2017-11-19T15:04:55.764Z,80.50
2017-11-19T15:07:23.296Z,80.50
2017-11-19T15:09:50.805Z,81.10
2017-11-19T15:12:18.468Z,83.50
2017-11-19T15:14:45.982Z,85.20
2017-11-19T15:17:14.301Z,90.20
2017-11-19T15:19:41.790Z,90.10
2017-11-19T15:22:09.343Z,90.00
2017-11-19T15:24:37.604Z,90.70
2017-11-19T15:27:05.913Z,91.40
2017-11-19T15:29:33.430Z,91.40
2017-11-19T15:32:00.931Z,90.80
2017-11-19T15:34:28.470Z,90.90
2017-11-19T15:36:55.966Z,90.90
2017-11-19T15:39:24.307Z,90.90
2017-11-19T15:41:52.680Z,90.90
2017-11-19T15:44:20.202Z,91.10
2017-11-19T15:46:47.708Z,90.60
2017-11-19T15:49:16.003Z,90.70
2017-11-19T15:51:43.499Z,90.70
2017-11-19T15:54:11.035Z,90.60
2017-11-19T15:56:39.298Z,89.80
2017-11-19T15:59:06.847Z,89.80
2017-11-19T16:01:34.499Z,89.70
2017-11-19T16:04:02.046Z,89.70
2017-11-19T16:06:30.327Z,89.00
2017-11-19T16:08:58.643Z,88.70
2017-11-19T16:11:26.144Z,88.70
2017-11-19T16:13:53.656Z,87.60
2017-11-19T16:16:21.198Z,88.00
2017-11-19T16:18:49.511Z,88.10
2017-11-19T16:21:17.062Z,88.30
2017-11-19T16:23:44.568Z,88.70
2017-11-19T16:26:12.886Z,88.10
2017-11-19T16:28:40.384Z,88.00
2017-11-19T16:31:07.929Z,87.70
2017-11-19T16:33:35.492Z,88.50
2017-11-19T16:36:03.015Z,88.50
2017-11-19T16:38:31.305Z,88.50
2017-11-19T16:40:58.909Z,88.50
2017-11-19T16:43:27.203Z,89.40
2017-11-19T16:45:55.485Z,90.00
2017-11-19T16:48:23.783Z,90.20
2017-11-19T16:50:51.295Z,90.30
2017-11-19T16:53:18.873Z,90.70
2017-11-19T16:55:46.394Z,91.10
2017-11-19T16:58:14.694Z,91.60
2017-11-19T17:00:42.208Z,91.60
2017-11-19T17:03:09.782Z,91.60
2017-11-19T17:05:37.298Z,92.00
2017-11-19T17:08:05.569Z,91.20
2017-11-19T17:10:33.114Z,91.20
2017-11-19T17:13:00.618Z,90.60
2017-11-19T17:15:28.980Z,90.70
2017-11-19T17:17:56.509Z,90.70
2017-11-19T17:20:24.058Z,90.60
2017-11-19T17:22:51.571Z,90.50
2017-11-19T17:25:19.186Z,90.50
2017-11-19T17:27:46.767Z,90.30
2017-11-19T17:30:14.262Z,90.40
2017-11-19T17:32:42.580Z,91.20
2017-11-19T17:35:10.091Z,91.20
2017-11-19T17:37:37.653Z,91.70
2017-11-19T17:40:05.177Z,91.90
2017-11-19T17:42:32.753Z,92.00
2017-11-19T17:45:00.257Z,91.50
2017-11-19T17:47:27.828Z,91.40
2017-11-19T17:49:56.298Z,91.20
2017-11-19T17:52:23.846Z,91.10
2017-11-19T17:54:51.361Z,91.00
2017-11-19T17:57:18.911Z,91.20
2017-11-19T17:59:46.411Z,91.30
2017-11-19T18:02:13.977Z,91.40
2017-11-19T18:04:41.675Z,91.30
2017-11-19T18:07:09.246Z,91.40
2017-11-19T18:09:36.811Z,91.20
2017-11-19T18:12:04.323Z,91.20
2017-11-19T18:14:32.663Z,90.80
2017-11-19T18:17:00.167Z,90.80
2017-11-19T18:19:27.739Z,90.90
2017-11-19T18:21:56.025Z,90.90
2017-11-19T18:24:23.563Z,90.90
2017-11-19T18:26:51.066Z,91.30
2017-11-19T18:29:18.602Z,91.30
2017-11-19T18:31:46.124Z,91.30
2017-11-19T18:34:14.435Z,90.80
2017-11-19T18:36:42.002Z,90.80
2017-11-19T18:39:09.538Z,90.90
2017-11-19T18:41:37.028Z,90.90
2017-11-19T18:44:04.555Z,90.80
2017-11-19T18:46:32.066Z,90.90
2017-11-19T18:48:59.619Z,90.60
2017-11-19T18:51:27.110Z,90.60
2017-11-19T18:53:54.648Z,90.60
2017-11-19T18:56:22.178Z,90.60
2017-11-19T18:58:50.436Z,90.50
2017-11-19T19:01:17.986Z,90.50
2017-11-19T19:03:45.482Z,90.80
2017-11-19T19:06:13.010Z,91.30
2017-11-19T19:08:40.511Z,91.30
2017-11-19T19:11:08.139Z,91.30
2017-11-19T19:13:35.649Z,91.30
2017-11-19T19:16:03.217Z,91.20
2017-11-19T19:18:30.727Z,91.00
2017-11-19T19:20:59.043Z,91.00
2017-11-19T19:23:26.557Z,90.90
2017-11-19T19:25:54.146Z,91.00
2017-11-19T19:28:21.646Z,91.20
2017-11-19T19:30:49.933Z,91.40
2017-11-19T19:33:17.632Z,91.40
2017-11-19T19:35:45.133Z,91.30
2017-11-19T19:38:12.717Z,91.40
2017-11-19T19:40:40.235Z,91.20
2017-11-19T19:43:07.784Z,91.10
2017-11-19T19:45:35.387Z,91.20
2017-11-19T19:48:02.982Z,91.30
2017-11-19T19:50:30.513Z,91.60
2017-11-19T19:52:58.068Z,91.60
2017-11-19T19:55:25.562Z,91.30
2017-11-19T19:57:53.136Z,91.10
2017-11-19T20:00:20.817Z,90.80
2017-11-19T20:02:48.731Z,90.70
2017-11-19T20:05:16.323Z,90.60
2017-11-19T20:07:43.827Z,90.70
2017-11-19T20:10:12.156Z,90.70
2017-11-19T20:12:39.652Z,90.70
2017-11-19T20:15:07.198Z,90.80
2017-11-19T20:17:34.701Z,91.00
2017-11-19T20:20:02.275Z,91.30
2017-11-19T20:22:29.779Z,91.40
2017-11-19T20:24:57.273Z,91.40
2017-11-19T20:27:24.880Z,91.50
2017-11-19T20:29:52.470Z,91.10
2017-11-19T20:32:20.116Z,91.00
2017-11-19T20:34:47.612Z,91.00
2017-11-19T20:37:15.174Z,91.10
2017-11-19T20:39:42.682Z,91.10
2017-11-19T20:42:10.237Z,91.40
2017-11-19T20:44:37.755Z,91.50
2017-11-19T20:47:05.292Z,91.50
2017-11-19T20:49:32.800Z,91.30
2017-11-19T20:52:00.423Z,91.60
2017-11-19T20:54:27.943Z,91.50
2017-11-19T20:56:55.473Z,91.40
2017-11-19T20:59:23.009Z,91.30
2017-11-19T21:01:50.549Z,91.00
2017-11-19T21:04:18.086Z,90.70
2017-11-19T21:06:45.590Z,90.80
2017-11-19T21:09:13.131Z,90.70
2017-11-19T21:11:40.636Z,90.70
2017-11-19T21:14:08.175Z,90.70
2017-11-19T21:16:35.678Z,90.50
2017-11-19T21:19:03.244Z,90.20
2017-11-19T21:21:31.543Z,90.00
2017-11-19T21:23:59.050Z,90.00
2017-11-19T21:26:26.593Z,89.50
2017-11-19T21:28:54.101Z,90.50
2017-11-19T21:31:21.681Z,90.00
2017-11-19T21:33:50.188Z,90.20
2017-11-19T21:36:17.878Z,90.10
2017-11-19T21:38:46.599Z,90.30
2017-11-19T21:41:14.106Z,90.30
2017-11-19T21:43:41.658Z,90.20
2017-11-19T21:46:10.091Z,89.90
2017-11-19T21:48:37.630Z,90.10
2017-11-19T21:51:05.142Z,90.00
2017-11-19T21:53:32.720Z,90.10
2017-11-19T21:56:00.285Z,90.10
2017-11-19T21:58:28.144Z,90.20
2017-11-19T22:00:55.644Z,90.20
2017-11-19T22:03:23.204Z,90.00
2017-11-19T22:05:50.722Z,89.90
2017-11-19T22:08:18.231Z,89.70
2017-11-19T22:10:45.855Z,89.70
2017-11-19T22:13:13.352Z,89.70
2017-11-19T22:15:40.892Z,90.00
2017-11-19T22:18:08.393Z,89.80
2017-11-19T22:20:35.920Z,89.80
2017-11-19T22:23:03.439Z,89.80
2017-11-19T22:25:30.976Z,90.00
2017-11-19T22:27:59.244Z,90.10
2017-11-19T22:30:26.775Z,90.00
2017-11-19T22:32:54.266Z,89.90
2017-11-19T22:35:21.758Z,90.20
2017-11-19T22:37:49.285Z,90.20
2017-11-19T22:40:16.782Z,90.20
2017-11-19T22:42:44.325Z,90.10
2017-11-19T22:45:11.862Z,90.00
2017-11-19T22:47:40.157Z,89.40
2017-11-19T22:50:08.439Z,89.30
2017-11-19T22:52:36.761Z,89.60
2017-11-19T22:55:04.250Z,89.60
2017-11-19T22:57:31.754Z,90.20
2017-11-19T22:59:59.291Z,90.40
2017-11-19T23:02:26.778Z,90.70
2017-11-19T23:04:54.303Z,90.60
2017-11-19T23:07:22.578Z,91.00
2017-11-19T23:09:50.126Z,91.00
2017-11-19T23:12:17.615Z,90.90
2017-11-19T23:14:45.142Z,91.00
2017-11-19T23:17:12.631Z,91.00
2017-11-19T23:19:40.192Z,91.10
2017-11-19T23:22:07.694Z,91.20
2017-11-19T23:24:35.199Z,91.00
2017-11-19T23:27:03.493Z,91.30
2017-11-19T23:29:31.746Z,91.30
2017-11-19T23:31:59.282Z,91.30
2017-11-19T23:34:26.774Z,91.00
2017-11-19T23:36:54.300Z,91.20
2017-11-19T23:39:22.572Z,91.20
2017-11-19T23:41:50.877Z,91.20
2017-11-19T23:44:18.375Z,91.20
2017-11-19T23:46:45.867Z,91.30
2017-11-19T23:49:13.394Z,90.70
2017-11-19T23:51:40.883Z,90.90
2017-11-19T23:54:08.442Z,91.00
2017-11-19T23:56:35.963Z,90.80
2017-11-19T23:59:03.521Z,90.80
